createdAt,value
2022-11-16T00:00:32.125Z,22.20
2022-11-16T00:03:38.866Z,22.90
2022-11-16T00:06:41.796Z,24.40
2022-11-16T00:09:44.755Z,28.60
2022-11-16T00:12:47.723Z,29.20
2022-11-16T00:15:56.071Z,21.10
2022-11-16T00:19:01.756Z,22.30
2022-11-16T00:22:04.819Z,22.50
2022-11-16T00:25:08.148Z,23.60
2022-11-16T00:28:11.801Z,28.50
2022-11-16T00:31:14.689Z,25.00
2022-11-16T00:34:18.616Z,22.30
2022-11-16T00:37:21.543Z,21.60
2022-11-16T00:40:24.533Z,21.10
2022-11-16T00:43:27.571Z,24.70
2022-11-16T00:46:30.482Z,25.40
2022-11-16T00:49:33.418Z,26.20
2022-11-16T00:52:36.414Z,23.50
2022-11-16T00:55:39.431Z,23.00
2022-11-16T00:58:42.366Z,21.00
2022-11-16T01:01:45.329Z,25.50
2022-11-16T01:04:48.282Z,27.90
2022-11-16T01:07:51.623Z,22.40
2022-11-16T01:10:55.724Z,21.20
2022-11-16T01:13:59.082Z,22.60
2022-11-16T01:17:02.080Z,26.40
2022-11-16T01:20:07.838Z,25.70
2022-11-16T01:23:11.260Z,23.40
2022-11-16T01:26:14.162Z,22.00
2022-11-16T01:29:17.170Z,21.40
2022-11-16T01:32:20.418Z,27.00
2022-11-16T01:35:23.328Z,26.80
2022-11-16T01:38:29.778Z,22.10
2022-11-16T01:41:33.497Z,21.40
2022-11-16T01:44:36.391Z,20.30
2022-11-16T01:47:39.312Z,25.30
2022-11-16T01:50:43.913Z,25.70
2022-11-16T01:53:46.801Z,23.60
2022-11-16T01:56:52.886Z,21.10
2022-11-16T01:59:59.318Z,23.20
2022-11-16T02:03:02.235Z,25.50
2022-11-16T02:06:32.395Z,26.90
2022-11-16T02:09:55.220Z,22.90
2022-11-16T02:13:12.755Z,21.70
2022-11-16T02:16:24.712Z,21.70
2022-11-16T02:19:58.875Z,23.70
2022-11-16T02:23:07.886Z,25.80
2022-11-16T02:26:20.123Z,21.80
2022-11-16T02:29:42.984Z,22.10
2022-11-16T02:33:09.026Z,22.10
2022-11-16T02:36:17.563Z,22.40
2022-11-16T02:39:24.762Z,26.50
2022-11-16T02:42:38.262Z,22.10
2022-11-16T02:45:46.443Z,22.00
2022-11-16T02:48:54.586Z,23.20
2022-11-16T02:51:59.047Z,25.70
2022-11-16T02:55:01.773Z,22.90
2022-11-16T02:58:09.658Z,22.10
2022-11-16T03:01:26.203Z,24.20
2022-11-16T03:04:47.426Z,26.40
2022-11-16T03:07:59.506Z,25.80
2022-11-16T03:11:27.534Z,23.20
2022-11-16T03:14:44.312Z,20.90
2022-11-16T03:17:50.040Z,23.20
2022-11-16T03:21:04.062Z,26.00
2022-11-16T03:24:08.189Z,25.00
2022-11-16T03:27:27.022Z,24.00
2022-11-16T03:30:34.055Z,22.20
2022-11-16T03:33:45.294Z,23.70
2022-11-16T03:36:50.473Z,26.40
2022-11-16T03:39:55.070Z,26.20
2022-11-16T03:43:00.910Z,24.20
2022-11-16T03:46:04.973Z,23.00
2022-11-16T03:49:07.830Z,23.00
2022-11-16T03:52:10.669Z,26.50
2022-11-16T03:55:13.506Z,26.00
2022-11-16T03:58:18.764Z,21.20
2022-11-16T04:01:23.227Z,22.70
2022-11-16T04:04:44.680Z,22.80
2022-11-16T04:08:07.804Z,23.90
2022-11-16T04:11:32.311Z,25.60
2022-11-16T04:14:53.853Z,23.60
2022-11-16T04:18:15.494Z,25.40
2022-11-16T04:21:56.623Z,25.80
2022-11-16T04:25:09.086Z,26.80
2022-11-16T04:28:14.839Z,25.80
2022-11-16T04:31:36.572Z,25.90
2022-11-16T04:34:58.154Z,27.40
2022-11-16T04:38:01.301Z,26.80
2022-11-16T04:41:04.085Z,23.30
2022-11-16T04:44:06.855Z,23.30
2022-11-16T04:47:09.775Z,22.70
2022-11-16T04:50:12.624Z,25.10
2022-11-16T04:53:15.986Z,25.60
2022-11-16T04:56:18.777Z,23.50
2022-11-16T04:59:21.608Z,22.00
2022-11-16T05:02:24.358Z,24.50
2022-11-16T05:05:27.077Z,25.10
2022-11-16T05:08:29.876Z,22.50
2022-11-16T05:11:32.892Z,21.30
2022-11-16T05:14:35.798Z,21.00
2022-11-16T05:17:38.675Z,22.10
2022-11-16T05:21:16.947Z,26.10
2022-11-16T05:24:35.885Z,24.50
2022-11-16T05:27:38.684Z,20.30
2022-11-16T05:30:45.693Z,18.40
2022-11-16T05:33:48.424Z,21.10
2022-11-16T05:36:51.742Z,21.90
2022-11-16T05:39:55.061Z,20.60
2022-11-16T05:42:58.270Z,19.30
2022-11-16T05:46:01.093Z,20.10
2022-11-16T05:49:04.036Z,20.90
2022-11-16T05:52:06.814Z,21.20
2022-11-16T05:55:10.032Z,23.20
2022-11-16T05:58:12.910Z,20.00
2022-11-16T06:01:15.754Z,19.60
2022-11-16T06:04:24.491Z,19.80
2022-11-16T06:07:27.907Z,21.70
2022-11-16T06:10:30.897Z,22.20
2022-11-16T06:13:33.884Z,18.60
2022-11-16T06:16:36.726Z,18.40
2022-11-16T06:19:39.460Z,20.80
2022-11-16T06:22:42.173Z,22.40
2022-11-16T06:25:45.719Z,21.00
2022-11-16T06:28:48.455Z,20.30
2022-11-16T06:31:51.200Z,18.20
2022-11-16T06:34:54.856Z,20.40
2022-11-16T06:37:58.082Z,22.80
2022-11-16T06:41:01.646Z,22.60
2022-11-16T06:44:04.397Z,20.60
2022-11-16T06:47:07.124Z,21.20
2022-11-16T06:50:10.313Z,19.70
2022-11-16T06:53:13.064Z,22.10
2022-11-16T06:56:16.588Z,21.80
2022-11-16T06:59:19.334Z,19.10
2022-11-16T07:02:22.990Z,17.50
2022-11-16T07:05:25.755Z,17.70
2022-11-16T07:08:28.508Z,19.50
2022-11-16T07:11:31.212Z,17.40
2022-11-16T07:14:33.963Z,15.80
2022-11-16T07:17:36.960Z,16.40
2022-11-16T07:20:39.688Z,15.20
2022-11-16T07:23:43.035Z,16.70
2022-11-16T07:26:45.869Z,17.40
2022-11-16T07:29:48.612Z,14.80
2022-11-16T07:32:51.526Z,14.70
2022-11-16T07:35:54.344Z,15.50
2022-11-16T07:38:57.391Z,17.60
2022-11-16T07:42:00.401Z,15.20
2022-11-16T07:45:03.384Z,14.30
2022-11-16T07:48:09.327Z,14.20
2022-11-16T07:51:22.239Z,15.30
2022-11-16T07:54:25.062Z,18.40
2022-11-16T07:57:27.946Z,14.10
2022-11-16T08:00:38.231Z,13.70
2022-11-16T08:03:43.768Z,14.90
2022-11-16T08:06:47.189Z,16.90
2022-11-16T08:09:50.197Z,16.40
2022-11-16T08:12:55.013Z,14.40
2022-11-16T08:16:02.528Z,15.20
2022-11-16T08:19:05.448Z,13.90
2022-11-16T08:22:09.156Z,17.10
2022-11-16T08:25:12.422Z,17.70
2022-11-16T08:28:15.235Z,16.00
2022-11-16T08:31:28.768Z,15.80
2022-11-16T08:34:31.740Z,15.60
2022-11-16T08:37:34.681Z,13.40
2022-11-16T08:40:38.635Z,12.30
2022-11-16T08:43:47.900Z,12.80
2022-11-16T08:46:50.703Z,13.90
2022-11-16T08:49:53.560Z,13.00
2022-11-16T08:53:00.823Z,11.40
2022-11-16T08:56:09.280Z,12.20
2022-11-16T08:59:12.683Z,12.20
2022-11-16T09:02:15.707Z,13.70
2022-11-16T09:05:18.768Z,11.20
2022-11-16T09:08:21.713Z,11.10
2022-11-16T09:11:25.855Z,10.60
2022-11-16T09:14:30.821Z,12.30
2022-11-16T09:17:33.950Z,12.70
2022-11-16T09:20:36.964Z,11.60
2022-11-16T09:23:39.823Z,11.40
2022-11-16T09:26:42.685Z,11.60
2022-11-16T09:29:45.515Z,11.80
2022-11-16T09:32:48.350Z,11.80
2022-11-16T09:35:51.194Z,9.30
2022-11-16T09:39:23.848Z,10.60
2022-11-16T09:42:48.742Z,10.10
2022-11-16T09:46:06.771Z,11.60
2022-11-16T09:49:17.493Z,10.10
2022-11-16T09:52:44.230Z,10.70
2022-11-16T09:55:51.214Z,11.90
2022-11-16T09:59:13.507Z,10.20
2022-11-16T10:02:25.394Z,9.70
2022-11-16T10:05:35.256Z,9.90
2022-11-16T10:08:52.513Z,9.80
2022-11-16T10:12:34.546Z,10.50
2022-11-16T10:15:56.169Z,8.20
2022-11-16T10:19:15.006Z,8.50
2022-11-16T10:22:39.108Z,8.90
2022-11-16T10:26:22.347Z,10.40
2022-11-16T10:29:31.427Z,8.00
2022-11-16T10:32:45.666Z,7.70
2022-11-16T10:35:53.760Z,8.70
2022-11-16T10:38:57.426Z,8.30
2022-11-16T10:42:07.705Z,8.30
2022-11-16T10:45:11.367Z,8.20
2022-11-16T10:48:37.230Z,8.30
2022-11-16T10:51:41.021Z,7.60
2022-11-16T10:54:45.975Z,9.20
2022-11-16T10:58:04.245Z,9.30
2022-11-16T11:01:10.952Z,8.40
2022-11-16T11:04:24.737Z,8.50
2022-11-16T11:07:35.467Z,7.70
2022-11-16T11:10:41.370Z,9.90
2022-11-16T11:13:44.905Z,8.90
2022-11-16T11:16:52.988Z,9.20
2022-11-16T11:20:25.892Z,9.30
2022-11-16T11:23:45.799Z,9.90
2022-11-16T11:26:55.837Z,8.30
2022-11-16T11:29:59.583Z,8.00
2022-11-16T11:33:11.520Z,8.00
2022-11-16T11:36:21.375Z,7.60
2022-11-16T11:39:24.203Z,9.10
2022-11-16T11:42:28.161Z,10.40
2022-11-16T11:45:44.982Z,9.80
2022-11-16T11:49:02.011Z,9.70
2022-11-16T11:52:21.940Z,10.00
2022-11-16T11:55:24.977Z,12.60
2022-11-16T11:58:37.559Z,8.60
2022-11-16T12:02:16.139Z,8.90
2022-11-16T12:05:45.014Z,10.10
2022-11-16T12:09:14.774Z,9.90
2022-11-16T12:12:49.022Z,8.60
2022-11-16T12:16:18.389Z,7.50
2022-11-16T12:19:21.360Z,9.50
2022-11-16T12:22:59.670Z,10.30
2022-11-16T12:26:20.973Z,8.50
2022-11-16T12:30:04.241Z,8.20
2022-11-16T12:33:31.545Z,8.40
2022-11-16T12:36:54.544Z,8.30
2022-11-16T12:40:35.414Z,7.20
2022-11-16T12:44:03.188Z,6.60
2022-11-16T12:47:22.922Z,7.90
2022-11-16T12:50:41.393Z,7.80
2022-11-16T12:54:16.718Z,7.40
2022-11-16T12:57:31.953Z,6.70
2022-11-16T13:00:46.979Z,7.30
2022-11-16T13:03:55.195Z,7.10
2022-11-16T13:07:11.226Z,6.80
2022-11-16T13:10:14.328Z,6.70
2022-11-16T13:13:41.438Z,6.80
2022-11-16T13:16:46.526Z,7.30
2022-11-16T13:20:15.498Z,6.60
2022-11-16T13:24:00.660Z,7.20
2022-11-16T13:27:22.505Z,6.50
2022-11-16T13:30:46.815Z,6.90
2022-11-16T13:33:55.687Z,6.50
2022-11-16T13:40:01.492Z,7.20
2022-11-16T13:43:22.805Z,7.70
2022-11-16T13:46:55.158Z,6.80
2022-11-16T13:50:20.283Z,6.50
2022-11-16T13:54:43.118Z,6.70
2022-11-16T13:57:02.817Z,6.50
2022-11-16T14:00:11.595Z,6.60
2022-11-16T14:06:23.317Z,5.80
2022-11-16T14:09:43.778Z,6.90
2022-11-16T14:12:54.473Z,6.80
2022-11-16T14:16:17.295Z,6.10
2022-11-16T14:19:49.324Z,5.40
2022-11-16T14:23:16.575Z,6.30
2022-11-16T14:26:28.087Z,6.00
2022-11-16T14:29:34.408Z,5.80
2022-11-16T14:32:45.467Z,5.30
2022-11-16T14:35:52.694Z,6.20
2022-11-16T14:38:55.730Z,6.30
2022-11-16T14:42:15.323Z,6.70
2022-11-16T14:45:30.832Z,5.90
2022-11-16T14:48:35.329Z,5.30
2022-11-16T14:51:45.289Z,5.70
2022-11-16T14:54:53.854Z,5.50
2022-11-16T14:58:18.261Z,5.80
2022-11-16T15:02:13.605Z,5.10
2022-11-16T15:05:20.387Z,5.10
2022-11-16T15:08:46.333Z,5.40
2022-11-16T15:12:09.939Z,6.20
2022-11-16T15:15:19.688Z,6.30
2022-11-16T15:18:23.370Z,5.30
2022-11-16T15:21:27.081Z,4.70
2022-11-16T15:24:34.476Z,5.00
2022-11-16T15:27:42.763Z,4.80
2022-11-16T15:30:50.976Z,4.90
2022-11-16T15:33:54.326Z,5.00
2022-11-16T15:36:57.358Z,5.30
2022-11-16T15:40:05.956Z,4.70
2022-11-16T15:43:12.366Z,5.30
2022-11-16T15:46:15.819Z,4.60
2022-11-16T15:49:29.179Z,4.30
2022-11-16T15:57:08.059Z,4.60
2022-11-16T16:00:23.088Z,5.20
2022-11-16T16:03:29.366Z,4.50
2022-11-16T16:06:55.733Z,4.30
2022-11-16T16:10:32.352Z,4.90
2022-11-16T16:13:45.135Z,6.20
2022-11-16T16:16:51.855Z,5.10
2022-11-16T16:20:04.224Z,4.10
2022-11-16T16:23:15.455Z,4.00
2022-11-16T16:26:23.869Z,5.20
2022-11-16T16:29:29.029Z,4.20
2022-11-16T16:32:35.222Z,4.80
2022-11-16T16:35:40.727Z,5.00
2022-11-16T16:38:48.253Z,5.10
2022-11-16T16:41:54.600Z,4.90
2022-11-16T16:45:01.231Z,5.20
2022-11-16T16:48:05.200Z,4.80
2022-11-16T16:51:11.821Z,4.80
2022-11-16T16:54:16.016Z,4.40
2022-11-16T16:57:25.963Z,4.80
2022-11-16T17:00:30.999Z,5.00
2022-11-16T17:03:34.323Z,5.00
2022-11-16T17:06:39.268Z,5.40
2022-11-16T17:09:45.440Z,5.20
2022-11-16T17:12:48.795Z,5.20
2022-11-16T17:15:51.796Z,4.80
2022-11-16T17:18:56.704Z,4.90
2022-11-16T17:22:00.185Z,5.60
2022-11-16T17:25:18.587Z,5.70
2022-11-16T17:28:26.113Z,6.50
2022-11-16T17:31:29.424Z,5.70
2022-11-16T17:34:32.499Z,6.20
2022-11-16T17:37:35.741Z,6.80
2022-11-16T17:40:41.981Z,6.00
2022-11-16T17:43:46.812Z,6.10
2022-11-16T17:47:08.803Z,7.10
2022-11-16T17:50:12.395Z,5.90
2022-11-16T17:53:16.510Z,6.20
2022-11-16T17:56:25.828Z,6.60
2022-11-16T17:59:30.002Z,6.40
2022-11-16T18:02:40.971Z,6.50
2022-11-16T18:05:46.688Z,5.40
2022-11-16T18:08:51.360Z,5.50
2022-11-16T18:11:56.410Z,6.20
2022-11-16T18:15:26.233Z,6.20
2022-11-16T18:18:23.850Z,6.80
2022-11-16T18:21:27.368Z,6.30
2022-11-16T18:24:32.293Z,6.00
2022-11-16T18:27:35.286Z,6.40
2022-11-16T18:30:39.796Z,6.10
2022-11-16T18:33:44.547Z,5.10
2022-11-16T18:36:49.385Z,5.50
2022-11-16T18:39:52.606Z,5.80
2022-11-16T18:42:56.235Z,5.20
2022-11-16T18:45:59.167Z,5.30
2022-11-16T18:49:08.157Z,4.70
2022-11-16T18:52:13.312Z,4.10
2022-11-16T18:55:17.657Z,4.70
2022-11-16T18:58:43.626Z,4.70
2022-11-16T19:01:47.200Z,5.40
2022-11-16T19:04:50.869Z,4.50
2022-11-16T19:07:54.000Z,4.90
2022-11-16T19:10:57.635Z,4.80
2022-11-16T19:14:30.691Z,4.40
2022-11-16T19:17:43.704Z,3.50
2022-11-16T19:21:13.729Z,3.90
2022-11-16T19:24:32.762Z,3.70
2022-11-16T19:27:37.608Z,3.40
2022-11-16T19:30:42.415Z,2.90
2022-11-16T19:33:49.722Z,3.10
2022-11-16T19:36:56.311Z,3.20
2022-11-16T19:39:59.296Z,2.80
2022-11-16T19:43:02.825Z,3.10
2022-11-16T19:46:07.342Z,3.60
2022-11-16T19:49:19.552Z,3.40
2022-11-16T19:52:26.517Z,3.20
2022-11-16T19:55:33.776Z,3.10
2022-11-16T19:58:43.912Z,4.10
2022-11-16T20:01:52.154Z,4.00
2022-11-16T20:04:57.254Z,4.30
2022-11-16T20:08:00.817Z,3.20
2022-11-16T20:11:32.965Z,3.90
2022-11-16T20:14:39.550Z,4.80
2022-11-16T20:17:42.707Z,4.90
2022-11-16T20:20:46.663Z,4.30
2022-11-16T20:23:51.937Z,4.00
2022-11-16T20:26:57.170Z,4.40
2022-11-16T20:30:04.944Z,5.10
2022-11-16T20:36:36.296Z,5.30
2022-11-16T20:39:49.033Z,4.70
2022-11-16T20:42:59.431Z,5.10
2022-11-16T20:46:05.925Z,4.80
2022-11-16T20:49:35.570Z,5.40
2022-11-16T20:52:51.400Z,5.10
2022-11-16T20:55:58.638Z,5.20
2022-11-16T20:59:05.381Z,5.50
2022-11-16T21:02:13.376Z,5.60
2022-11-16T21:05:20.383Z,6.20
2022-11-16T21:08:30.608Z,6.30
2022-11-16T21:11:56.315Z,5.40
2022-11-16T21:14:59.509Z,5.50
2022-11-16T21:18:07.535Z,5.10
2022-11-16T21:21:20.486Z,6.40
2022-11-16T21:24:25.056Z,5.50
2022-11-16T21:27:30.835Z,5.20
2022-11-16T21:30:36.308Z,5.80
2022-11-16T21:33:39.686Z,5.90
2022-11-16T21:36:52.421Z,5.80
2022-11-16T21:40:05.852Z,5.00
2022-11-16T21:43:09.346Z,5.70
2022-11-16T21:46:18.292Z,6.00
2022-11-16T21:49:21.252Z,5.00
2022-11-16T21:52:24.197Z,6.10
2022-11-16T21:55:29.800Z,5.00
2022-11-16T21:58:34.163Z,6.20
2022-11-16T22:01:57.740Z,4.70
2022-11-16T22:05:19.586Z,5.40
2022-11-16T22:08:22.371Z,4.70
2022-11-16T22:11:27.617Z,5.40
2022-11-16T22:14:34.640Z,5.20
2022-11-16T22:17:45.443Z,4.60
2022-11-16T22:20:55.188Z,5.00
2022-11-16T22:24:03.885Z,5.00
2022-11-16T22:30:13.303Z,5.40
2022-11-16T22:33:19.281Z,4.70
2022-11-16T22:36:27.392Z,4.50
2022-11-16T22:39:37.847Z,4.70
2022-11-16T22:42:42.283Z,4.80
2022-11-16T22:45:45.586Z,4.50
2022-11-16T22:48:51.645Z,4.80
2022-11-16T22:51:54.808Z,4.80
2022-11-16T22:54:57.804Z,4.30
2022-11-16T22:58:03.257Z,5.60
2022-11-16T23:01:08.496Z,5.20
2022-11-16T23:04:25.750Z,4.40
2022-11-16T23:07:29.629Z,4.60
2022-11-16T23:10:52.787Z,4.50
2022-11-16T23:14:15.298Z,4.90
2022-11-16T23:17:21.667Z,5.10
2022-11-16T23:20:43.316Z,4.20
2022-11-16T23:24:06.909Z,4.80
2022-11-16T23:27:29.051Z,4.50
2022-11-16T23:30:32.080Z,4.70
2022-11-16T23:33:43.990Z,4.60
2022-11-16T23:36:46.915Z,4.40
2022-11-16T23:39:50.056Z,4.30
2022-11-16T23:43:12.803Z,5.20
2022-11-16T23:46:15.534Z,4.20
2022-11-16T23:49:18.865Z,4.50
2022-11-16T23:52:21.724Z,4.30
2022-11-16T23:55:24.859Z,4.60
2022-11-16T23:58:27.614Z,5.00
